Time;durP1;ratioP1;P1;durP2;ratioP2;P2;SDS_P1;SDS_P2;PMS_P1;PMS_P2;Temp;Humidity;BMP_temperature;BMP_pressure;BME280_temperature;BME280_humidity;BME280_pressure;Samples;Min_cycle;Max_cycle;Signal;HPM_P1;HPM_P2
2021/12/11 00:00:28;;;;;;;28.88;13.73;;;;;;;;;;5053819;28;20115;-65
2021/12/11 00:02:57;;;;;;;27.48;12.85;;;;;;;;;;5054294;28;20052;-65
2021/12/11 00:05:23;;;;;;;28.48;15.38;;;;;;;;;;5054447;28;20587;-65
2021/12/11 00:07:49;;;;;;;32.58;15.05;;;;;;;;;;5053450;28;20123;-65
2021/12/11 00:10:21;;;;;;;31.40;15.48;;;;;;;;;;5054376;28;20041;-65
2021/12/11 00:12:49;;;;;;;36.30;17.00;;;;;;;;;;5054126;28;20041;-65
2021/12/11 00:15:18;;;;;;;35.55;15.95;;;;;;;;;;5053567;28;20094;-65
2021/12/11 00:17:44;;;;;;;32.00;15.80;;;;;;;;;;5054208;28;20152;-65
2021/12/11 00:20:24;;;;;;;36.45;16.30;;;;;;;;;;5054212;28;20029;-65
2021/12/11 00:22:52;;;;;;;34.55;16.42;;;;;;;;;;5053169;28;20064;-65
2021/12/11 00:25:18;;;;;;;39.50;16.38;;;;;;;;;;5053928;28;20184;-65
2021/12/11 00:27:46;;;;;;;31.65;14.40;;;;;;;;;;5054054;28;20048;-65
2021/12/11 00:30:19;;;;;;;33.75;15.35;;;;;;;;;;5053335;28;20059;-65
2021/12/11 00:32:45;;;;;;;28.52;15.02;;;;;;;;;;5053767;28;20063;-65
2021/12/11 00:35:20;;;;;;;34.78;16.17;;;;;;;;;;5053898;28;20045;-65
2021/12/11 00:37:46;;;;;;;33.15;15.10;;;;;;;;;;5053194;28;20383;-65
2021/12/11 00:40:18;;;;;;;36.40;16.15;;;;;;;;;;5053742;28;20121;-65
2021/12/11 00:42:51;;;;;;;29.60;15.57;;;;;;;;;;5053532;28;20542;-65
2021/12/11 00:45:20;;;;;;;28.42;15.15;;;;;;;;;;5052975;28;20037;-65
2021/12/11 00:47:49;;;;;;;28.88;14.20;;;;;;;;;;5053648;28;20052;-65
2021/12/11 00:50:16;;;;;;;27.40;12.80;;;;;;;;;;5053619;28;20044;-65
2021/12/11 00:52:47;;;;;;;23.65;13.77;;;;;;;;;;5052824;28;20037;-66
2021/12/11 00:55:27;;;;;;;29.85;14.73;;;;;;;;;;5053326;28;20044;-65
2021/12/11 00:58:02;;;;;;;30.13;15.50;;;;;;;;;;5053119;28;20128;-65
2021/12/11 01:00:28;;;;;;;32.63;15.10;;;;;;;;;;5052553;28;20083;-65
2021/12/11 01:02:55;;;;;;;30.25;15.93;;;;;;;;;;5053246;28;20067;-65
2021/12/11 01:05:22;;;;;;;31.35;14.73;;;;;;;;;;5035274;28;20063;-65
2021/12/11 01:07:48;;;;;;;29.10;14.52;;;;;;;;;;5052280;28;20047;-65
2021/12/11 01:10:24;;;;;;;28.55;14.43;;;;;;;;;;5052595;28;20476;-65
2021/12/11 01:12:57;;;;;;;25.38;13.73;;;;;;;;;;5053142;28;20052;-65
2021/12/11 01:15:24;;;;;;;;;;;;;;;;;;5053013;28;20045;-65
2021/12/11 01:20:48;;;;;;;25.40;14.27;;;;;;;;;;5053054;28;20079;-65
2021/12/11 01:23:17;;;;;;;28.08;13.43;;;;;;;;;;5026333;28;20140;-65
2021/12/11 01:25:44;;;;;;;22.98;12.93;;;;;;;;;;5015096;28;20045;-65
2021/12/11 01:28:10;;;;;;;26.25;13.18;;;;;;;;;;5033029;28;20120;-65
2021/12/11 01:30:39;;;;;;;27.05;13.38;;;;;;;;;;5032283;28;20041;-65
2021/12/11 01:33:06;;;;;;;23.48;12.43;;;;;;;;;;5032513;28;20041;-66
2021/12/11 01:35:32;;;;;;;23.10;11.98;;;;;;;;;;5032863;28;20049;-65
2021/12/11 01:38:07;;;;;;;23.10;11.63;;;;;;;;;;5032087;28;20045;-66
2021/12/11 01:40:34;;;;;;;29.92;13.38;;;;;;;;;;5032669;28;20400;-65
2021/12/11 01:43:02;;;;;;;26.27;12.88;;;;;;;;;;5032224;28;20041;-65
2021/12/11 01:45:28;;;;;;;25.55;12.93;;;;;;;;;;5032099;28;20053;-65
2021/12/11 01:47:55;;;;;;;26.50;12.77;;;;;;;;;;5032356;28;20046;-65
2021/12/11 01:50:20;;;;;;;24.63;12.00;;;;;;;;;;5032536;28;20395;-65
2021/12/11 01:52:53;;;;;;;26.65;12.57;;;;;;;;;;5031803;28;20048;-66
2021/12/11 01:55:22;;;;;;;19.73;11.48;;;;;;;;;;5032306;28;20037;-65
2021/12/11 01:57:52;;;;;;;22.48;12.13;;;;;;;;;;5032506;28;20060;-65
2021/12/11 02:00:23;;;;;;;22.52;11.73;;;;;;;;;;5031655;28;20052;-66
2021/12/11 02:02:53;;;;;;;19.60;10.95;;;;;;;;;;5014359;28;20052;-65
2021/12/11 02:05:22;;;;;;;23.70;12.07;;;;;;;;;;5032026;28;20057;-65
2021/12/11 02:07:50;;;;;;;21.85;12.02;;;;;;;;;;5031623;28;20071;-66
2021/12/11 02:10:21;;;;;;;21.55;11.27;;;;;;;;;;5032268;28;20049;-65
2021/12/11 02:12:48;;;;;;;21.48;11.10;;;;;;;;;;5032240;28;20519;-65
2021/12/11 02:15:19;;;;;;;24.08;12.57;;;;;;;;;;5031448;28;20048;-66
2021/12/11 02:17:51;;;;;;;23.38;12.75;;;;;;;;;;5031942;28;20041;-66
2021/12/11 02:20:23;;;;;;;22.40;12.40;;;;;;;;;;5013687;28;20124;-65
2021/12/11 02:22:50;;;;;;;24.92;13.57;;;;;;;;;;5035576;28;20045;-66
2021/12/11 02:25:28;;;;;;;20.65;11.77;;;;;;;;;;5051885;28;20076;-65
2021/12/11 02:27:58;;;;;;;26.58;12.25;;;;;;;;;;5051206;28;20048;-65
2021/12/11 02:30:27;;;;;;;22.90;11.48;;;;;;;;;;5051873;28;20056;-65
2021/12/11 02:32:53;;;;;;;20.77;11.98;;;;;;;;;;5051676;28;20041;-65
2021/12/11 02:35:23;;;;;;;21.48;11.65;;;;;;;;;;5050776;28;20053;-65
2021/12/11 02:37:52;;;;;;;22.05;11.77;;;;;;;;;;5051664;28;20055;-65
2021/12/11 02:40:21;;;;;;;26.95;11.90;;;;;;;;;;5051668;28;20630;-66
2021/12/11 02:42:55;;;;;;;18.65;11.27;;;;;;;;;;5050807;28;20035;-65
2021/12/11 02:45:21;;;;;;;23.30;11.82;;;;;;;;;;5051365;28;20086;-65
2021/12/11 02:47:49;;;;;;;19.23;11.52;;;;;;;;;;5051642;28;20076;-65
2021/12/11 02:50:15;;;;;;;21.17;11.32;;;;;;;;;;5050639;28;20041;-66
2021/12/11 02:52:43;;;;;;;24.83;11.73;;;;;;;;;;5051394;28;20378;-65
2021/12/11 02:55:30;;;;;;;19.25;9.82;;;;;;;;;;5051418;28;20103;-65
2021/12/11 02:57:58;;;;;;;24.08;10.60;;;;;;;;;;5050813;28;20116;-65
2021/12/11 03:00:27;;;;;;;21.65;11.02;;;;;;;;;;5051126;28;20044;-66
2021/12/11 03:03:04;;;;;;;21.40;11.23;;;;;;;;;;5051383;28;20037;-65
2021/12/11 03:05:39;;;;;;;18.90;10.35;;;;;;;;;;5050897;28;20073;-66
2021/12/11 03:08:06;;;;;;;19.42;10.80;;;;;;;;;;5051395;28;20116;-65
2021/12/11 03:10:33;;;;;;;21.40;10.88;;;;;;;;;;5051333;28;20179;-65
2021/12/11 03:12:59;;;;;;;20.65;10.95;;;;;;;;;;5050306;28;20037;-66
2021/12/11 03:15:25;;;;;;;18.27;10.45;;;;;;;;;;5051285;28;20106;-65
2021/12/11 03:17:51;;;;;;;19.45;11.25;;;;;;;;;;5051267;28;20072;-65
2021/12/11 03:20:20;;;;;;;18.30;10.40;;;;;;;;;;5050491;28;20037;-66
2021/12/11 03:22:47;;;;;;;22.42;12.07;;;;;;;;;;5050730;28;20731;-65
2021/12/11 03:25:21;;;;;;;17.67;9.77;;;;;;;;;;5051177;28;20041;-65
2021/12/11 03:27:47;;;;;;;18.35;10.23;;;;;;;;;;5050551;28;20041;-65
2021/12/11 03:30:21;;;;;;;19.77;9.35;;;;;;;;;;5051057;28;20052;-65
2021/12/11 03:32:48;;;;;;;23.60;11.60;;;;;;;;;;5034767;28;20599;-65
2021/12/11 03:35:14;;;;;;;23.25;10.57;;;;;;;;;;5054242;28;20045;-66
2021/12/11 03:37:40;;;;;;;21.38;10.73;;;;;;;;;;5054751;28;20094;-65
2021/12/11 03:40:07;;;;;;;19.58;11.05;;;;;;;;;;5054482;28;20080;-65
2021/12/11 03:42:34;;;;;;;20.08;11.35;;;;;;;;;;5054108;28;20123;-65
2021/12/11 03:45:01;;;;;;;17.45;10.13;;;;;;;;;;5054979;28;20083;-66
2021/12/11 03:47:30;;;;;;;19.58;10.55;;;;;;;;;;5054848;28;20091;-65
2021/12/11 03:49:57;;;;;;;20.33;10.07;;;;;;;;;;5054061;28;20411;-65
2021/12/11 03:52:23;;;;;;;22.58;10.80;;;;;;;;;;5054476;28;20044;-66
2021/12/11 03:54:50;;;;;;;21.90;11.02;;;;;;;;;;5054560;28;20072;-65
2021/12/11 03:57:18;;;;;;;24.83;11.15;;;;;;;;;;5053974;28;20365;-66
2021/12/11 03:59:47;;;;;;;21.40;10.40;;;;;;;;;;5054588;28;20044;-66
2021/12/11 04:02:14;;;;;;;17.05;10.43;;;;;;;;;;5054598;28;20063;-66
2021/12/11 04:04:45;;;;;;;17.88;9.20;;;;;;;;;;5053792;28;20047;-66
2021/12/11 04:07:14;;;;;;;22.30;10.20;;;;;;;;;;5054532;28;20475;-66
2021/12/11 04:09:40;;;;;;;20.58;10.05;;;;;;;;;;5054535;28;20036;-66
2021/12/11 04:12:08;;;;;;;21.30;10.63;;;;;;;;;;5053614;28;20487;-65
2021/12/11 04:14:36;;;;;;;21.85;10.60;;;;;;;;;;5054276;28;20076;-66
2021/12/11 04:17:03;;;;;;;19.35;10.90;;;;;;;;;;5054368;28;20090;-65
2021/12/11 04:19:29;;;;;;;21.08;11.00;;;;;;;;;;5053235;28;20040;-66
2021/12/11 04:21:55;;;;;;;19.15;10.23;;;;;;;;;;5053837;28;20087;-66
2021/12/11 04:24:23;;;;;;;21.23;11.38;;;;;;;;;;5053774;28;20140;-65
2021/12/11 04:26:50;;;;;;;20.55;10.68;;;;;;;;;;5053093;28;20045;-66
2021/12/11 04:29:16;;;;;;;22.92;11.80;;;;;;;;;;5054037;28;20066;-65
2021/12/11 04:31:46;;;;;;;17.95;10.48;;;;;;;;;;5053523;28;20060;-65
2021/12/11 04:34:14;;;;;;;23.63;11.23;;;;;;;;;;5053382;28;20045;-65
2021/12/11 04:36:42;;;;;;;19.20;10.90;;;;;;;;;;5053816;28;20041;-66
2021/12/11 04:39:10;;;;;;;18.17;10.98;;;;;;;;;;5053773;28;20112;-66
2021/12/11 04:41:42;;;;;;;21.52;10.82;;;;;;;;;;5052982;28;20044;-66
2021/12/11 04:44:08;;;;;;;;;;;;;;;;;;5053081;28;20487;-66
2021/12/11 04:46:34;;;;;;;16.55;10.73;;;;;;;;;;5053512;28;20670;-65
2021/12/11 04:49:12;;;;;;;19.50;11.15;;;;;;;;;;5053013;28;20519;-65
2021/12/11 04:51:50;;;;;;;24.50;11.43;;;;;;;;;;5053394;28;20208;-65
2021/12/11 04:57:23;;;;;;;25.25;13.93;;;;;;;;;;5052688;28;20045;-66
2021/12/11 05:00:06;;;;;;;31.33;15.15;;;;;;;;;;5052869;28;20502;-66
2021/12/11 05:03:06;;;;;;;30.08;14.50;;;;;;;;;;5053376;28;20041;-66
2021/12/11 05:10:40;;;;;;;35.85;17.95;;;;;;;;;;5053070;28;20479;-66
2021/12/11 05:13:05;;;;;;;;;;;;;;;;;;5053714;28;20045;-65
2021/12/11 05:15:34;;;;;;;34.38;17.00;;;;;;;;;;5053178;28;19974;-66
2021/12/11 05:18:00;;;;;;;31.00;14.77;;;;;;;;;;5034853;28;20049;-66
2021/12/11 05:20:30;;;;;;;35.28;17.13;;;;;;;;;;5052833;28;20403;-66
2021/12/11 05:22:56;;;;;;;30.23;15.45;;;;;;;;;;5052675;28;20136;-65
2021/12/11 05:25:22;;;;;;;31.73;16.33;;;;;;;;;;5034374;28;20067;-66
2021/12/11 05:27:48;;;;;;;32.00;16.33;;;;;;;;;;5052738;28;20063;-66
2021/12/11 05:30:17;;;;;;;31.83;16.50;;;;;;;;;;5052809;28;20379;-65
2021/12/11 05:32:43;;;;;;;25.13;15.18;;;;;;;;;;5052580;28;20049;-65
2021/12/11 05:35:10;;;;;;;25.90;14.15;;;;;;;;;;5052072;28;20041;-65
2021/12/11 05:37:36;;;;;;;29.63;13.95;;;;;;;;;;5052734;28;20040;-65
2021/12/11 05:40:03;;;;;;;29.88;15.35;;;;;;;;;;5034855;28;20468;-65
2021/12/11 05:42:29;;;;;;;29.77;14.93;;;;;;;;;;5051904;28;20036;-65
2021/12/11 05:44:55;;;;;;;28.17;14.93;;;;;;;;;;5052673;28;20048;-64
2021/12/11 05:47:21;;;;;;;32.85;16.92;;;;;;;;;;5052537;28;20033;-65
2021/12/11 05:49:49;;;;;;;27.58;14.98;;;;;;;;;;5051879;28;20774;-64
2021/12/11 05:52:15;;;;;;;25.83;13.65;;;;;;;;;;5052459;28;20041;-64
2021/12/11 05:54:43;;;;;;;28.02;14.27;;;;;;;;;;5051775;28;20080;-64
2021/12/11 05:57:12;;;;;;;28.05;14.75;;;;;;;;;;5051817;28;20555;-64
2021/12/11 05:59:39;;;;;;;28.33;14.23;;;;;;;;;;5052043;28;20045;-64
2021/12/11 06:02:14;;;;;;;26.17;14.27;;;;;;;;;;5034228;28;20041;-65
2021/12/11 06:04:41;;;;;;;26.63;14.38;;;;;;;;;;5051735;28;20041;-64
2021/12/11 06:07:09;;;;;;;25.40;14.07;;;;;;;;;;5051905;28;20040;-64
2021/12/11 06:09:36;;;;;;;25.33;12.52;;;;;;;;;;5052126;28;20033;-64
2021/12/11 06:12:04;;;;;;;30.50;14.48;;;;;;;;;;5051129;28;20068;-64
2021/12/11 06:14:31;;;;;;;28.27;13.90;;;;;;;;;;5052091;28;20033;-64
2021/12/11 06:16:58;;;;;;;25.77;13.77;;;;;;;;;;5051985;28;20467;-64
2021/12/11 06:19:25;;;;;;;26.60;13.25;;;;;;;;;;5051222;28;20066;-65
2021/12/11 06:21:52;;;;;;;23.65;13.40;;;;;;;;;;5051578;28;20039;-64
2021/12/11 06:24:19;;;;;;;27.85;13.52;;;;;;;;;;5051514;28;20057;-64
2021/12/11 06:26:45;;;;;;;29.52;14.23;;;;;;;;;;5032980;28;20407;-64
2021/12/11 06:29:11;;;;;;;24.45;13.70;;;;;;;;;;5034071;28;20079;-64
2021/12/11 06:31:38;;;;;;;25.92;14.38;;;;;;;;;;5051590;28;20372;-65
2021/12/11 06:34:04;;;;;;;24.65;13.52;;;;;;;;;;5051162;28;20510;-64
2021/12/11 06:36:30;;;;;;;25.80;13.40;;;;;;;;;;5051626;28;20058;-64
2021/12/11 06:39:00;;;;;;;25.00;13.75;;;;;;;;;;5051623;28;20041;-65
2021/12/11 06:41:28;;;;;;;25.35;14.50;;;;;;;;;;5032771;28;20090;-64
2021/12/11 06:43:54;;;;;;;28.00;14.25;;;;;;;;;;5051509;28;20037;-65
2021/12/11 06:46:20;;;;;;;24.02;12.93;;;;;;;;;;5051648;28;20087;-64
2021/12/11 06:48:48;;;;;;;26.33;13.82;;;;;;;;;;5050840;28;20398;-64
2021/12/11 06:51:14;;;;;;;24.17;12.50;;;;;;;;;;5051637;28;20044;-64
2021/12/11 06:53:42;;;;;;;28.38;13.27;;;;;;;;;;5051424;28;20048;-64
2021/12/11 06:56:09;;;;;;;30.73;15.57;;;;;;;;;;5050497;28;20059;-65
2021/12/11 06:58:35;;;;;;;26.10;14.48;;;;;;;;;;5051440;28;20033;-64
2021/12/11 07:01:02;;;;;;;26.17;13.70;;;;;;;;;;5051316;28;20082;-64
2021/12/11 07:03:28;;;;;;;24.92;14.63;;;;;;;;;;5050796;28;20041;-64
2021/12/11 07:05:55;;;;;;;26.98;14.30;;;;;;;;;;5051428;28;20128;-64
2021/12/11 07:08:22;;;;;;;24.77;14.45;;;;;;;;;;5054004;28;20041;-65
2021/12/11 07:10:49;;;;;;;30.05;15.38;;;;;;;;;;5054974;28;20186;-64
2021/12/11 07:13:15;;;;;;;26.75;14.85;;;;;;;;;;5055368;28;20044;-64
2021/12/11 07:15:41;;;;;;;26.20;14.20;;;;;;;;;;5055368;28;20040;-64
2021/12/11 07:18:08;;;;;;;27.13;14.45;;;;;;;;;;5054515;28;20037;-64
2021/12/11 07:20:35;;;;;;;27.85;14.20;;;;;;;;;;5055015;28;20545;-65
2021/12/11 07:23:01;;;;;;;26.63;14.73;;;;;;;;;;5054893;28;20479;-64
2021/12/11 07:25:37;;;;;;;27.08;14.35;;;;;;;;;;5054508;28;20049;-64
2021/12/11 07:28:04;;;;;;;29.70;14.63;;;;;;;;;;5055076;28;20037;-64
2021/12/11 07:30:32;;;;;;;26.13;14.63;;;;;;;;;;5037100;28;20052;-64
2021/12/11 07:33:00;;;;;;;29.20;14.68;;;;;;;;;;5054331;28;20462;-64
2021/12/11 07:35:26;;;;;;;26.13;14.95;;;;;;;;;;5054974;28;20080;-65
2021/12/11 07:37:52;;;;;;;26.58;16.15;;;;;;;;;;5054964;28;20028;-64
2021/12/11 07:40:21;;;;;;;29.15;15.30;;;;;;;;;;5036485;28;20033;-65
2021/12/11 07:42:47;;;;;;;33.80;15.30;;;;;;;;;;5054840;28;20036;-64
2021/12/11 07:45:14;;;;;;;31.48;15.88;;;;;;;;;;5054838;28;20484;-65
2021/12/11 07:47:40;;;;;;;28.08;15.32;;;;;;;;;;5054111;28;20451;-65
2021/12/11 07:50:06;;;;;;;26.20;15.07;;;;;;;;;;5054650;28;20110;-65
2021/12/11 07:52:32;;;;;;;28.27;15.23;;;;;;;;;;5054701;28;20116;-64
2021/12/11 07:54:58;;;;;;;28.13;15.70;;;;;;;;;;5053932;28;20116;-64
2021/12/11 07:57:24;;;;;;;26.63;15.00;;;;;;;;;;5054614;28;20464;-64
2021/12/11 07:59:50;;;;;;;29.40;15.23;;;;;;;;;;5054558;28;20037;-64
2021/12/11 08:02:16;;;;;;;31.33;15.18;;;;;;;;;;5054028;28;20037;-64
2021/12/11 08:04:42;;;;;;;32.25;15.70;;;;;;;;;;5054744;28;20430;-64
2021/12/11 08:07:09;;;;;;;28.42;14.32;;;;;;;;;;5054741;28;20056;-65
2021/12/11 08:09:35;;;;;;;28.95;14.60;;;;;;;;;;5053880;28;20044;-64
2021/12/11 08:12:01;;;;;;;24.65;13.60;;;;;;;;;;5054058;28;20029;-64
2021/12/11 08:14:27;;;;;;;29.58;14.65;;;;;;;;;;5054148;28;20036;-64
2021/12/11 08:16:57;;;;;;;27.38;14.63;;;;;;;;;;5053526;28;20084;-65
2021/12/11 08:19:25;;;;;;;25.05;14.98;;;;;;;;;;5035984;28;20071;-64
2021/12/11 08:21:52;;;;;;;28.15;15.05;;;;;;;;;;5054174;28;20041;-64
2021/12/11 08:24:19;;;;;;;31.38;14.32;;;;;;;;;;5053048;28;20053;-64
2021/12/11 08:26:46;;;;;;;28.92;14.85;;;;;;;;;;5054086;28;20064;-65
2021/12/11 08:29:15;;;;;;;26.13;14.52;;;;;;;;;;5053732;28;20049;-64
2021/12/11 08:31:42;;;;;;;29.42;16.75;;;;;;;;;;5051657;28;20052;-64
2021/12/11 08:34:09;;;;;;;32.08;16.17;;;;;;;;;;5053956;28;20128;-64
2021/12/11 08:36:35;;;;;;;29.27;16.48;;;;;;;;;;5053621;28;20041;-65
2021/12/11 08:39:01;;;;;;;31.23;15.98;;;;;;;;;;5053202;28;20037;-64
2021/12/11 08:41:29;;;;;;;35.10;17.63;;;;;;;;;;5053772;28;20036;-64
2021/12/11 08:44:00;;;;;;;29.25;16.80;;;;;;;;;;5053738;28;20037;-65
2021/12/11 08:46:27;;;;;;;35.33;17.48;;;;;;;;;;5053002;28;20107;-64
2021/12/11 08:48:55;;;;;;;33.40;16.38;;;;;;;;;;5053762;28;20041;-64
2021/12/11 08:51:56;;;;;;;37.35;19.00;;;;;;;;;;5053604;28;20447;-64
2021/12/11 08:54:23;;;;;;;35.63;18.92;;;;;;;;;;4971034;28;20130;-65
2021/12/11 08:56:50;;;;;;;44.47;24.70;;;;;;;;;;5037033;28;20084;-65
2021/12/11 08:59:17;;;;;;;73.75;38.00;;;;;;;;;;5053459;28;20033;-65
2021/12/11 09:01:53;;;;;;;59.65;30.27;;;;;;;;;;5052741;28;20037;-65
2021/12/11 09:04:22;;;;;;;53.17;28.15;;;;;;;;;;5053352;28;20076;-65
2021/12/11 09:06:51;;;;;;;50.75;24.02;;;;;;;;;;5053156;28;20099;-65
2021/12/11 09:09:23;;;;;;;50.45;24.00;;;;;;;;;;5052411;28;20087;-65
2021/12/11 09:11:55;;;;;;;46.03;22.90;;;;;;;;;;5053042;28;20045;-65
2021/12/11 09:14:25;;;;;;;41.33;20.63;;;;;;;;;;5053375;28;20507;-65
2021/12/11 09:16:57;;;;;;;40.88;22.00;;;;;;;;;;5052550;28;20551;-65
2021/12/11 09:19:28;;;;;;;44.17;21.00;;;;;;;;;;5052746;28;20063;-65
2021/12/11 09:22:02;;;;;;;39.42;22.50;;;;;;;;;;5053008;28;20480;-65
2021/12/11 09:24:30;;;;;;;44.08;22.50;;;;;;;;;;5016655;28;20068;-65
2021/12/11 09:27:14;;;;;;;44.75;23.92;;;;;;;;;;5032805;28;20849;-65
2021/12/11 09:29:49;;;;;;;48.85;23.88;;;;;;;;;;5031767;28;20488;-65
2021/12/11 09:32:25;;;;;;;48.67;23.42;;;;;;;;;;5032855;28;20088;-65
2021/12/11 09:34:57;;;;;;;50.15;25.15;;;;;;;;;;5032918;28;20045;-65
2021/12/11 09:37:24;;;;;;;51.10;25.23;;;;;;;;;;5032238;28;20858;-65
2021/12/11 09:39:54;;;;;;;49.60;25.70;;;;;;;;;;5032845;28;20044;-65
2021/12/11 09:42:20;;;;;;;47.83;25.15;;;;;;;;;;5032474;28;20068;-65
2021/12/11 09:44:49;;;;;;;45.30;25.10;;;;;;;;;;5032067;28;20045;-65
2021/12/11 09:47:18;;;;;;;48.85;26.35;;;;;;;;;;5032770;28;20045;-65
2021/12/11 09:49:47;;;;;;;47.05;24.88;;;;;;;;;;5032638;28;20461;-65
2021/12/11 09:52:23;;;;;;;49.95;24.60;;;;;;;;;;5031940;28;20073;-65
2021/12/11 09:54:51;;;;;;;52.35;24.42;;;;;;;;;;5032524;28;20465;-65
2021/12/11 09:57:19;;;;;;;46.97;25.75;;;;;;;;;;5032430;28;20503;-65
2021/12/11 09:59:46;;;;;;;50.72;25.33;;;;;;;;;;5031753;28;20057;-65
2021/12/11 10:02:19;;;;;;;44.42;24.38;;;;;;;;;;5032358;28;20434;-65
2021/12/11 10:04:52;;;;;;;46.80;26.05;;;;;;;;;;5032529;28;20538;-65
2021/12/11 10:09:51;;;;;;;51.38;26.90;;;;;;;;;;5032422;28;20088;-65
2021/12/11 10:12:23;;;;;;;48.40;24.90;;;;;;;;;;5032144;28;20052;-65
2021/12/11 10:14:52;;;;;;;47.75;25.75;;;;;;;;;;5031392;28;20053;-65
2021/12/11 10:17:20;;;;;;;54.20;27.08;;;;;;;;;;5031996;28;20116;-65
2021/12/11 10:19:47;;;;;;;52.50;26.63;;;;;;;;;;5031646;28;20055;-65
2021/12/11 10:22:18;;;;;;;50.15;26.27;;;;;;;;;;5031012;28;20041;-65
2021/12/11 10:24:44;;;;;;;47.03;26.77;;;;;;;;;;5051443;28;20053;-65
2021/12/11 10:27:13;;;;;;;53.47;27.55;;;;;;;;;;5051827;28;20495;-65
2021/12/11 10:29:41;;;;;;;49.72;27.63;;;;;;;;;;5051121;28;20041;-65
2021/12/11 10:32:10;;;;;;;49.35;26.63;;;;;;;;;;5051719;28;20496;-65
2021/12/11 10:34:38;;;;;;;51.88;27.98;;;;;;;;;;5051745;28;20048;-65
2021/12/11 10:37:09;;;;;;;53.88;28.67;;;;;;;;;;5051089;28;20769;-65
2021/12/11 10:39:36;;;;;;;51.03;27.90;;;;;;;;;;5051638;28;20037;-65
2021/12/11 10:42:03;;;;;;;59.20;29.55;;;;;;;;;;5050622;28;20044;-65
2021/12/11 10:44:32;;;;;;;69.95;34.25;;;;;;;;;;5050583;28;20047;-65
2021/12/11 10:47:00;;;;;;;61.40;29.25;;;;;;;;;;5051637;28;20518;-65
2021/12/11 10:49:27;;;;;;;52.83;27.58;;;;;;;;;;5051643;28;20041;-65
2021/12/11 10:51:57;;;;;;;56.88;28.95;;;;;;;;;;5050817;28;20675;-65
2021/12/11 10:54:23;;;;;;;54.65;27.13;;;;;;;;;;5051280;28;20049;-65
2021/12/11 10:56:50;;;;;;;52.45;28.88;;;;;;;;;;5051317;28;20511;-65
2021/12/11 10:59:24;;;;;;;56.90;27.95;;;;;;;;;;5050711;28;20072;-65
2021/12/11 11:02:02;;;;;;;56.10;29.33;;;;;;;;;;5033328;28;20479;-65
2021/12/11 11:04:36;;;;;;;56.22;28.83;;;;;;;;;;5051325;28;20163;-65
2021/12/11 11:07:03;;;;;;;56.70;29.23;;;;;;;;;;5050834;28;20056;-65
2021/12/11 11:09:29;;;;;;;56.50;27.85;;;;;;;;;;5051097;28;20048;-65
2021/12/11 11:11:57;;;;;;;57.25;28.50;;;;;;;;;;5051236;28;20052;-65
2021/12/11 11:14:24;;;;;;;53.92;27.27;;;;;;;;;;5050559;28;20127;-65
2021/12/11 11:16:55;;;;;;;58.78;29.33;;;;;;;;;;5051294;28;20044;-65
2021/12/11 11:19:22;;;;;;;53.15;28.17;;;;;;;;;;5051200;28;20044;-65
2021/12/11 11:21:50;;;;;;;59.20;30.42;;;;;;;;;;5050146;28;20043;-65
2021/12/11 11:24:16;;;;;;;51.60;29.35;;;;;;;;;;5017138;28;20065;-65
2021/12/11 11:26:44;;;;;;;47.53;26.92;;;;;;;;;;5031404;28;20040;-65
2021/12/11 11:29:12;;;;;;;51.40;27.08;;;;;;;;;;5012771;28;20119;-65
2021/12/11 11:31:40;;;;;;;50.63;27.73;;;;;;;;;;5030973;28;20137;-65
2021/12/11 11:34:08;;;;;;;52.42;25.30;;;;;;;;;;5031340;28;20648;-65
2021/12/11 11:36:35;;;;;;;50.53;26.60;;;;;;;;;;5030576;28;20037;-65
2021/12/11 11:39:05;;;;;;;54.45;26.25;;;;;;;;;;5031395;28;20045;-65
2021/12/11 11:41:32;;;;;;;47.03;23.88;;;;;;;;;;5031086;28;20133;-65
2021/12/11 11:44:00;;;;;;;49.03;25.20;;;;;;;;;;5030485;28;20381;-65
2021/12/11 11:46:26;;;;;;;45.25;23.60;;;;;;;;;;5031225;28;20037;-65
2021/12/11 11:48:56;;;;;;;49.45;24.40;;;;;;;;;;5031079;28;20373;-65
2021/12/11 11:51:28;;;;;;;46.90;22.90;;;;;;;;;;5030280;28;20045;-65
2021/12/11 11:53:54;;;;;;;47.08;24.00;;;;;;;;;;5033177;28;20041;-65
2021/12/11 11:56:22;;;;;;;45.80;23.83;;;;;;;;;;5034770;28;20468;-65
2021/12/11 11:58:49;;;;;;;50.25;24.55;;;;;;;;;;5016347;28;20116;-65
2021/12/11 12:01:18;;;;;;;49.47;23.15;;;;;;;;;;5034575;28;20045;-65
2021/12/11 12:03:44;;;;;;;46.50;22.83;;;;;;;;;;5034802;28;20657;-65
2021/12/11 12:06:12;;;;;;;44.83;22.65;;;;;;;;;;5034035;28;20125;-65
2021/12/11 12:08:43;;;;;;;47.65;22.60;;;;;;;;;;5034257;28;20045;-65
2021/12/11 12:11:09;;;;;;;44.90;22.92;;;;;;;;;;5034356;28;20112;-65
2021/12/11 12:13:35;;;;;;;44.08;23.33;;;;;;;;;;5033556;28;20098;-65
2021/12/11 12:16:04;;;;;;;53.67;24.42;;;;;;;;;;5034508;28;20124;-65
2021/12/11 12:18:30;;;;;;;48.05;24.63;;;;;;;;;;5034444;28;20083;-65
2021/12/11 12:20:57;;;;;;;53.33;25.20;;;;;;;;;;5033669;28;20037;-65
2021/12/11 12:23:23;;;;;;;47.10;23.40;;;;;;;;;;5024825;28;20053;-65
2021/12/11 12:25:51;;;;;;;45.22;21.70;;;;;;;;;;5054251;28;20131;-65
2021/12/11 12:28:17;;;;;;;44.65;22.58;;;;;;;;;;5053480;28;20487;-65
2021/12/11 12:30:48;;;;;;;40.90;21.70;;;;;;;;;;5053705;28;20052;-65
2021/12/11 12:33:16;;;;;;;49.08;22.77;;;;;;;;;;5054040;28;20056;-65
2021/12/11 12:35:42;;;;;;;44.95;23.85;;;;;;;;;;5053353;28;20056;-65
2021/12/11 12:38:11;;;;;;;42.75;20.25;;;;;;;;;;5053992;28;20183;-65
2021/12/11 12:40:39;;;;;;;46.28;22.38;;;;;;;;;;5053944;28;20506;-65
2021/12/11 12:43:41;;;;;;;46.72;22.48;;;;;;;;;;5052983;28;20545;-65
2021/12/11 12:46:04;;;;;;;38.47;21.88;;;;;;;;;;5053297;28;20052;-65
2021/12/11 12:48:30;;;;;;;43.55;20.42;;;;;;;;;;5053764;28;20041;-65
2021/12/11 12:50:59;;;;;;;35.22;19.67;;;;;;;;;;5053153;28;20075;-65
2021/12/11 12:53:26;;;;;;;43.08;19.77;;;;;;;;;;5053615;28;20515;-65
2021/12/11 12:55:52;;;;;;;37.97;17.88;;;;;;;;;;5053528;28;20045;-65
2021/12/11 12:58:23;;;;;;;36.88;18.30;;;;;;;;;;5035157;28;20349;-65
2021/12/11 13:00:52;;;;;;;33.58;17.60;;;;;;;;;;5053417;28;20136;-65
2021/12/11 13:03:21;;;;;;;34.83;19.02;;;;;;;;;;5053429;28;20091;-65
2021/12/11 13:05:50;;;;;;;34.83;17.45;;;;;;;;;;5051855;28;20048;-65
2021/12/11 13:08:23;;;;;;;35.67;19.42;;;;;;;;;;5052928;28;20048;-65
2021/12/11 13:10:51;;;;;;;38.92;19.88;;;;;;;;;;5053394;28;20045;-65
2021/12/11 13:13:18;;;;;;;42.85;20.25;;;;;;;;;;5052366;28;20094;-65
2021/12/11 13:15:47;;;;;;;38.92;19.60;;;;;;;;;;5035119;28;20041;-65
2021/12/11 13:18:15;;;;;;;32.10;17.35;;;;;;;;;;5053249;28;20111;-65
2021/12/11 13:20:50;;;;;;;36.08;19.65;;;;;;;;;;5052196;28;20044;-65
2021/12/11 13:23:16;;;;;;;35.80;18.50;;;;;;;;;;5052493;28;20045;-65
2021/12/11 13:25:47;;;;;;;33.50;18.42;;;;;;;;;;5052960;28;20048;-65
2021/12/11 13:28:15;;;;;;;37.92;19.48;;;;;;;;;;5052394;28;20491;-65
2021/12/11 13:30:47;;;;;;;38.95;19.25;;;;;;;;;;5053009;28;20037;-65
2021/12/11 13:33:13;;;;;;;;;;;;;;;;;;5053277;28;20098;-65
2021/12/11 13:35:43;;;;;;;35.67;18.23;;;;;;;;;;5052100;28;20373;-65
2021/12/11 13:38:10;;;;;;;40.08;17.98;;;;;;;;;;5053055;28;20044;-65
2021/12/11 13:40:37;;;;;;;37.88;19.15;;;;;;;;;;5052859;28;20380;-65
2021/12/11 13:43:04;;;;;;;37.03;18.60;;;;;;;;;;5051718;28;20049;-65
2021/12/11 13:45:32;;;;;;;40.20;19.90;;;;;;;;;;5052827;28;20037;-65
2021/12/11 13:47:59;;;;;;;41.25;19.33;;;;;;;;;;5052750;28;20080;-65
2021/12/11 13:50:28;;;;;;;36.88;17.83;;;;;;;;;;5051966;28;20045;-65
2021/12/11 13:52:54;;;;;;;36.00;19.33;;;;;;;;;;5052441;28;20049;-65
2021/12/11 13:55:20;;;;;;;38.08;19.08;;;;;;;;;;5052524;28;20128;-65
2021/12/11 13:57:46;;;;;;;38.45;18.10;;;;;;;;;;5033786;28;20040;-65
2021/12/11 14:00:19;;;;;;;38.10;19.35;;;;;;;;;;5052415;28;20041;-65
2021/12/11 14:02:45;;;;;;;;;;;;;;;;;;5052784;28;20124;-65
2021/12/11 14:05:11;;;;;;;39.35;18.38;;;;;;;;;;5051837;28;20470;-65
2021/12/11 14:07:38;;;;;;;33.60;18.02;;;;;;;;;;5052048;28;20115;-65
2021/12/11 14:10:20;;;;;;;37.85;19.08;;;;;;;;;;5051962;28;20045;-65
2021/12/11 14:12:47;;;;;;;38.22;19.30;;;;;;;;;;5051408;28;20036;-65
2021/12/11 14:15:13;;;;;;;36.65;18.52;;;;;;;;;;5052074;28;20033;-65
2021/12/11 14:17:39;;;;;;;33.03;19.50;;;;;;;;;;5033811;28;20415;-65
2021/12/11 14:20:06;;;;;;;42.67;19.83;;;;;;;;;;5033323;28;20037;-65
2021/12/11 14:22:34;;;;;;;40.20;20.95;;;;;;;;;;5051200;28;20065;-65
2021/12/11 14:25:00;;;;;;;39.47;18.55;;;;;;;;;;5052068;28;20867;-65
2021/12/11 14:27:26;;;;;;;38.28;20.50;;;;;;;;;;5050871;28;20055;-65
2021/12/11 14:29:55;;;;;;;39.13;20.08;;;;;;;;;;5051872;28;20040;-65
2021/12/11 14:32:22;;;;;;;42.63;21.00;;;;;;;;;;5051819;28;20423;-65
2021/12/11 14:34:48;;;;;;;42.88;20.85;;;;;;;;;;5051068;28;20529;-65
2021/12/11 14:37:14;;;;;;;45.25;20.85;;;;;;;;;;5051645;28;20099;-65
2021/12/11 14:39:46;;;;;;;42.20;21.30;;;;;;;;;;5051376;28;20057;-65